createdAt,value
2017-06-03T00:00:23.468Z,0
2017-06-03T00:01:04.077Z,0
2017-06-03T00:01:44.702Z,0
2017-06-03T00:02:25.336Z,0
2017-06-03T00:03:05.923Z,0
2017-06-03T00:03:46.525Z,0
2017-06-03T00:04:27.136Z,0
2017-06-03T00:05:07.743Z,0
2017-06-03T00:05:48.351Z,0
2017-06-03T00:06:28.948Z,0
2017-06-03T00:07:09.530Z,0
2017-06-03T00:07:50.126Z,0
2017-06-03T00:08:30.728Z,0
2017-06-03T00:09:11.318Z,0
2017-06-03T00:09:51.943Z,0
2017-06-03T00:10:32.572Z,0
2017-06-03T00:11:13.164Z,0
2017-06-03T00:11:53.825Z,0
2017-06-03T00:12:34.400Z,0
2017-06-03T00:13:14.990Z,0
2017-06-03T00:13:55.589Z,0
2017-06-03T00:14:36.200Z,0
2017-06-03T00:15:16.818Z,0
2017-06-03T00:15:57.420Z,0
2017-06-03T00:16:38.016Z,0
2017-06-03T00:17:18.614Z,0
2017-06-03T00:17:59.200Z,0
2017-06-03T00:18:39.802Z,0
2017-06-03T00:19:20.383Z,0
2017-06-03T00:20:00.978Z,0
2017-06-03T00:20:41.595Z,0
2017-06-03T00:21:22.177Z,0
2017-06-03T00:22:02.776Z,0
2017-06-03T00:22:43.369Z,0
2017-06-03T00:23:23.949Z,0
2017-06-03T00:24:04.585Z,0
2017-06-03T00:24:45.196Z,0
2017-06-03T00:25:25.787Z,0
2017-06-03T00:26:06.416Z,0
2017-06-03T00:26:47.013Z,0
2017-06-03T00:27:27.624Z,0
2017-06-03T00:28:09.180Z,0
2017-06-03T00:28:49.778Z,0
2017-06-03T00:29:30.368Z,0
2017-06-03T00:30:10.943Z,0
2017-06-03T00:30:51.533Z,0
2017-06-03T00:31:32.163Z,0
2017-06-03T00:32:12.857Z,0
2017-06-03T00:32:53.420Z,0
2017-06-03T00:33:34.004Z,0
2017-06-03T00:34:14.605Z,0
2017-06-03T00:34:55.201Z,0
2017-06-03T00:35:35.781Z,0
2017-06-03T00:36:16.358Z,0
2017-06-03T00:36:56.957Z,0
2017-06-03T00:37:37.557Z,0
2017-06-03T00:38:18.148Z,0
2017-06-03T00:38:58.760Z,0
2017-06-03T00:39:39.349Z,0
2017-06-03T00:40:19.941Z,0
2017-06-03T00:41:00.530Z,0
2017-06-03T00:41:41.143Z,0
2017-06-03T00:42:21.725Z,0
2017-06-03T00:43:02.321Z,0
2017-06-03T00:43:42.909Z,0
2017-06-03T00:44:23.497Z,0
2017-06-03T00:45:04.081Z,0
2017-06-03T00:45:44.681Z,0
2017-06-03T00:46:25.270Z,0
2017-06-03T00:47:05.860Z,0
2017-06-03T00:47:46.475Z,0
2017-06-03T00:48:27.055Z,0
2017-06-03T00:49:07.647Z,0
2017-06-03T00:49:48.239Z,0
2017-06-03T00:50:28.811Z,0
2017-06-03T00:51:09.402Z,0
2017-06-03T00:51:49.994Z,0
2017-06-03T00:52:30.628Z,0
2017-06-03T00:53:11.249Z,0
2017-06-03T00:53:51.859Z,0
2017-06-03T00:54:32.449Z,0
2017-06-03T00:55:13.044Z,0
2017-06-03T00:55:53.660Z,0
2017-06-03T00:56:34.261Z,0
2017-06-03T00:57:14.859Z,0
2017-06-03T00:57:55.451Z,0
2017-06-03T00:58:36.036Z,0
2017-06-03T00:59:16.625Z,0
2017-06-03T00:59:57.232Z,0
2017-06-03T01:00:37.881Z,0
2017-06-03T01:01:18.475Z,0
2017-06-03T01:01:59.069Z,0
2017-06-03T01:02:39.650Z,0
2017-06-03T01:03:20.261Z,0
2017-06-03T01:04:00.868Z,0
2017-06-03T01:04:41.593Z,0
2017-06-03T01:05:22.186Z,0
2017-06-03T01:06:02.761Z,0
2017-06-03T01:06:43.350Z,0
2017-06-03T01:07:23.936Z,0
2017-06-03T01:08:04.556Z,0
2017-06-03T01:08:45.203Z,0
2017-06-03T01:09:25.814Z,0
2017-06-03T01:10:06.451Z,0
2017-06-03T01:10:47.047Z,0
2017-06-03T01:11:27.638Z,0
2017-06-03T01:12:08.220Z,0
2017-06-03T01:12:48.812Z,0
2017-06-03T01:13:29.417Z,0
2017-06-03T01:14:10.080Z,0
2017-06-03T01:14:50.668Z,0
2017-06-03T01:15:31.249Z,0
2017-06-03T01:16:11.832Z,0
2017-06-03T01:16:52.432Z,0
2017-06-03T01:17:33.060Z,0
2017-06-03T01:18:13.642Z,0
2017-06-03T01:18:54.255Z,0
2017-06-03T01:19:34.839Z,0
2017-06-03T01:20:15.443Z,0
2017-06-03T01:20:56.027Z,0
2017-06-03T01:21:36.604Z,0
2017-06-03T01:22:17.183Z,0
2017-06-03T01:22:57.778Z,0
2017-06-03T01:23:38.373Z,0
2017-06-03T01:24:18.973Z,0
2017-06-03T01:24:59.581Z,0
2017-06-03T01:25:40.173Z,0
2017-06-03T01:26:20.827Z,0
2017-06-03T01:27:01.453Z,0
2017-06-03T01:27:42.054Z,0
2017-06-03T01:28:22.685Z,0
2017-06-03T01:29:03.275Z,0
2017-06-03T01:29:43.855Z,0
2017-06-03T01:30:24.485Z,0
2017-06-03T01:31:05.108Z,0
2017-06-03T01:31:45.676Z,0
2017-06-03T01:32:26.277Z,0
2017-06-03T01:33:06.892Z,0
2017-06-03T01:33:47.478Z,0
2017-06-03T01:34:28.068Z,0
2017-06-03T01:35:08.682Z,0
2017-06-03T01:35:49.275Z,0
2017-06-03T01:36:29.847Z,0
2017-06-03T01:37:10.433Z,0
2017-06-03T01:37:51.027Z,0
2017-06-03T01:38:31.677Z,0
2017-06-03T01:39:12.261Z,0
2017-06-03T01:39:52.877Z,0
2017-06-03T01:40:33.519Z,0
2017-06-03T01:41:14.122Z,0
2017-06-03T01:41:54.726Z,0
2017-06-03T01:42:35.323Z,0
2017-06-03T01:43:15.965Z,0
2017-06-03T01:43:56.558Z,0
2017-06-03T01:44:37.151Z,0
2017-06-03T01:45:17.781Z,0
2017-06-03T01:45:58.374Z,0
2017-06-03T01:46:38.982Z,0
2017-06-03T01:47:19.578Z,0
2017-06-03T01:48:00.179Z,0
2017-06-03T01:48:40.780Z,0
2017-06-03T01:49:21.376Z,0
2017-06-03T01:50:01.977Z,0
2017-06-03T01:50:42.566Z,0
2017-06-03T01:51:23.160Z,0
2017-06-03T01:52:03.751Z,0
2017-06-03T01:52:44.371Z,0
2017-06-03T01:53:24.989Z,0
2017-06-03T01:54:05.594Z,0
2017-06-03T01:54:46.206Z,0
2017-06-03T01:55:26.803Z,0
2017-06-03T01:56:07.430Z,0
2017-06-03T01:56:48.009Z,0
2017-06-03T01:57:28.594Z,0
2017-06-03T01:58:09.191Z,0
2017-06-03T01:58:49.770Z,0
2017-06-03T01:59:30.365Z,0
2017-06-03T02:00:10.955Z,0
2017-06-03T02:00:51.641Z,0
2017-06-03T02:01:32.206Z,0
2017-06-03T02:02:12.789Z,0
2017-06-03T02:02:53.395Z,0
2017-06-03T02:03:33.973Z,0
2017-06-03T02:04:14.577Z,0
2017-06-03T02:04:55.176Z,0
2017-06-03T02:05:35.766Z,0
2017-06-03T02:06:16.389Z,0
2017-06-03T02:06:57.003Z,0
2017-06-03T02:07:37.596Z,0
2017-06-03T02:08:18.196Z,0
2017-06-03T02:08:58.793Z,0
2017-06-03T02:09:39.456Z,0
2017-06-03T02:10:20.050Z,0
2017-06-03T02:11:00.642Z,0
2017-06-03T02:11:41.235Z,0
2017-06-03T02:12:21.859Z,0
2017-06-03T02:13:02.468Z,0
2017-06-03T02:13:43.052Z,0
2017-06-03T02:14:23.661Z,0
2017-06-03T02:15:04.220Z,0
2017-06-03T02:15:44.842Z,0
2017-06-03T02:16:25.434Z,0
2017-06-03T02:17:06.019Z,0
2017-06-03T02:17:46.613Z,0
2017-06-03T02:18:27.208Z,0
2017-06-03T02:19:07.817Z,0
2017-06-03T02:19:48.411Z,0
2017-06-03T02:20:29.024Z,0
2017-06-03T02:21:09.625Z,0
2017-06-03T02:21:50.215Z,0
2017-06-03T02:22:30.818Z,0
2017-06-03T02:23:11.407Z,0
2017-06-03T02:23:52.030Z,0
2017-06-03T02:24:32.625Z,0
2017-06-03T02:25:13.235Z,0
2017-06-03T02:25:53.840Z,0
2017-06-03T02:26:34.418Z,0
2017-06-03T02:27:15.014Z,0
2017-06-03T02:27:55.607Z,0
2017-06-03T02:28:36.200Z,0
2017-06-03T02:29:16.788Z,0
2017-06-03T02:29:57.386Z,0
2017-06-03T02:30:37.975Z,0
2017-06-03T02:31:18.586Z,0
2017-06-03T02:31:59.166Z,0
2017-06-03T02:32:39.757Z,0
2017-06-03T02:33:20.372Z,0
2017-06-03T02:34:00.966Z,0
2017-06-03T02:34:41.556Z,0
2017-06-03T02:35:22.164Z,0
2017-06-03T02:36:02.750Z,0
2017-06-03T02:36:43.334Z,0
2017-06-03T02:37:23.924Z,0
2017-06-03T02:38:04.505Z,0
2017-06-03T02:38:45.099Z,0
2017-06-03T02:39:25.693Z,0
2017-06-03T02:40:06.275Z,0
2017-06-03T02:40:46.847Z,0
2017-06-03T02:41:27.444Z,0
2017-06-03T02:42:08.027Z,0
2017-06-03T02:42:48.614Z,0
2017-06-03T02:43:29.204Z,0
2017-06-03T02:44:09.834Z,0
2017-06-03T02:44:50.433Z,0
2017-06-03T02:45:31.027Z,0
2017-06-03T02:46:11.625Z,0
2017-06-03T02:46:52.276Z,0
2017-06-03T02:47:32.879Z,0
2017-06-03T02:48:13.478Z,0
2017-06-03T02:48:54.055Z,0
2017-06-03T02:49:34.641Z,0
2017-06-03T02:50:15.221Z,0
2017-06-03T02:50:55.812Z,0
2017-06-03T02:51:36.473Z,0
2017-06-03T02:52:17.073Z,0
2017-06-03T02:52:57.686Z,0
2017-06-03T02:53:38.298Z,0
2017-06-03T02:54:18.898Z,0
2017-06-03T02:54:59.516Z,0
2017-06-03T02:55:40.110Z,0
2017-06-03T02:56:20.721Z,0
2017-06-03T02:57:01.313Z,0
2017-06-03T02:57:41.911Z,0
2017-06-03T02:58:22.518Z,5
2017-06-03T02:59:03.093Z,5
2017-06-03T02:59:43.686Z,5
2017-06-03T03:00:24.302Z,5
2017-06-03T03:01:04.892Z,5
2017-06-03T03:01:45.490Z,5
2017-06-03T03:02:26.075Z,5
2017-06-03T03:03:06.662Z,5
2017-06-03T03:03:47.300Z,5
2017-06-03T03:04:27.883Z,5
2017-06-03T03:05:08.497Z,5
2017-06-03T03:05:49.098Z,5
2017-06-03T03:06:29.690Z,5
2017-06-03T03:07:10.280Z,5
2017-06-03T03:07:50.899Z,5
2017-06-03T03:08:31.476Z,5
2017-06-03T03:09:12.067Z,5
2017-06-03T03:09:52.709Z,5
2017-06-03T03:10:33.297Z,10
2017-06-03T03:11:13.886Z,10
2017-06-03T03:11:54.464Z,10
2017-06-03T03:12:35.062Z,10
2017-06-03T03:13:15.654Z,10
2017-06-03T03:13:56.248Z,10
2017-06-03T03:14:36.842Z,10
2017-06-03T03:15:17.465Z,10
2017-06-03T03:15:58.059Z,10
2017-06-03T03:16:38.655Z,10
2017-06-03T03:17:19.239Z,10
2017-06-03T03:17:59.823Z,10
2017-06-03T03:18:40.421Z,15
2017-06-03T03:19:21.048Z,15
2017-06-03T03:20:01.644Z,15
2017-06-03T03:20:42.317Z,15
2017-06-03T03:21:22.947Z,15
2017-06-03T03:22:03.540Z,10
2017-06-03T03:22:44.134Z,10
2017-06-03T03:23:24.727Z,10
2017-06-03T03:24:05.319Z,10
2017-06-03T03:24:45.929Z,15
2017-06-03T03:25:26.607Z,15
2017-06-03T03:26:07.220Z,15
2017-06-03T03:26:47.808Z,15
2017-06-03T03:27:28.406Z,15
2017-06-03T03:28:08.996Z,15
2017-06-03T03:28:49.582Z,15
2017-06-03T03:29:30.177Z,20
2017-06-03T03:30:10.768Z,20
2017-06-03T03:30:51.467Z,20
2017-06-03T03:31:32.050Z,20
2017-06-03T03:32:12.645Z,20
2017-06-03T03:32:53.238Z,20
2017-06-03T03:33:33.848Z,20
2017-06-03T03:34:14.440Z,20
2017-06-03T03:34:55.031Z,20
2017-06-03T03:35:35.661Z,20
2017-06-03T03:36:16.248Z,25
2017-06-03T03:36:56.853Z,25
2017-06-03T03:37:37.474Z,25
2017-06-03T03:38:18.060Z,25
2017-06-03T03:38:58.658Z,25
2017-06-03T03:39:39.255Z,25
2017-06-03T03:40:19.856Z,25
2017-06-03T03:41:00.455Z,25
2017-06-03T03:41:41.057Z,25
2017-06-03T03:42:21.652Z,25
2017-06-03T03:43:02.246Z,25
2017-06-03T03:43:42.852Z,25
2017-06-03T03:44:23.436Z,30
2017-06-03T03:45:04.024Z,30
2017-06-03T03:45:44.610Z,30
2017-06-03T03:46:25.198Z,30
2017-06-03T03:47:05.787Z,30
2017-06-03T03:47:46.383Z,30
2017-06-03T03:48:26.972Z,30
2017-06-03T03:49:07.592Z,30
2017-06-03T03:49:48.214Z,30
2017-06-03T03:50:28.816Z,30
2017-06-03T03:51:09.426Z,35
2017-06-03T03:51:50.019Z,35
2017-06-03T03:52:30.606Z,35
2017-06-03T03:53:11.241Z,35
2017-06-03T03:53:51.816Z,35
2017-06-03T03:54:32.460Z,35
2017-06-03T03:55:13.057Z,35
2017-06-03T03:55:53.668Z,35
2017-06-03T03:56:34.264Z,35
2017-06-03T03:57:14.858Z,40
2017-06-03T03:57:55.458Z,40
2017-06-03T03:58:36.071Z,40
2017-06-03T03:59:16.671Z,40
2017-06-03T03:59:57.266Z,40
2017-06-03T04:00:37.846Z,40
2017-06-03T04:01:18.426Z,40
2017-06-03T04:01:59.021Z,40
2017-06-03T04:02:39.604Z,40
2017-06-03T04:03:20.224Z,45
2017-06-03T04:04:00.815Z,45
2017-06-03T04:04:41.408Z,45
2017-06-03T04:05:21.991Z,45
2017-06-03T04:06:02.658Z,45
2017-06-03T04:06:43.265Z,45
2017-06-03T04:07:23.856Z,45
2017-06-03T04:08:04.449Z,45
2017-06-03T04:08:45.044Z,50
2017-06-03T04:09:25.668Z,50
2017-06-03T04:10:06.239Z,50
2017-06-03T04:10:46.816Z,50
2017-06-03T04:11:27.407Z,50
2017-06-03T04:12:07.996Z,50
2017-06-03T04:12:48.593Z,50
2017-06-03T04:13:29.187Z,55
2017-06-03T04:14:09.796Z,55
2017-06-03T04:14:50.383Z,55
2017-06-03T04:15:30.977Z,55
2017-06-03T04:16:11.567Z,55
2017-06-03T04:16:52.156Z,55
2017-06-03T04:17:32.750Z,60
2017-06-03T04:18:13.347Z,60
2017-06-03T04:18:53.932Z,60
2017-06-03T04:19:34.521Z,60
2017-06-03T04:20:15.118Z,60
2017-06-03T04:20:55.714Z,60
2017-06-03T04:21:36.311Z,60
2017-06-03T04:22:16.891Z,60
2017-06-03T04:22:57.500Z,65
2017-06-03T04:23:38.101Z,65
2017-06-03T04:24:18.697Z,65
2017-06-03T04:24:59.275Z,65
2017-06-03T04:25:39.860Z,65
2017-06-03T04:26:20.469Z,65
2017-06-03T04:27:01.109Z,65
2017-06-03T04:27:41.701Z,65
2017-06-03T04:28:22.292Z,70
2017-06-03T04:29:02.902Z,70
2017-06-03T04:29:43.503Z,70
2017-06-03T04:30:24.088Z,70
2017-06-03T04:31:04.689Z,70
2017-06-03T04:31:45.276Z,70
2017-06-03T04:32:25.901Z,70
2017-06-03T04:33:06.507Z,70
2017-06-03T04:33:47.102Z,70
2017-06-03T04:34:27.870Z,70
2017-06-03T04:35:08.449Z,70
2017-06-03T04:35:49.048Z,75
2017-06-03T04:36:29.653Z,75
2017-06-03T04:37:10.251Z,75
2017-06-03T04:37:50.848Z,75
2017-06-03T04:38:31.431Z,80
2017-06-03T04:39:12.024Z,80
2017-06-03T04:39:52.626Z,80
2017-06-03T04:40:33.308Z,80
2017-06-03T04:41:13.911Z,80
2017-06-03T04:41:54.512Z,80
2017-06-03T04:42:35.101Z,80
2017-06-03T04:43:15.678Z,80
2017-06-03T04:43:56.264Z,80
2017-06-03T04:44:36.878Z,80
2017-06-03T04:45:17.477Z,85
2017-06-03T04:45:58.115Z,85
2017-06-03T04:46:38.713Z,85
2017-06-03T04:47:19.302Z,85
2017-06-03T04:47:59.883Z,85
2017-06-03T04:48:40.482Z,85
2017-06-03T04:49:21.105Z,85
2017-06-03T04:50:01.701Z,85
2017-06-03T04:50:42.315Z,85
2017-06-03T04:51:22.941Z,85
2017-06-03T04:52:03.547Z,85
2017-06-03T04:52:44.743Z,90
2017-06-03T04:53:25.373Z,90
2017-06-03T04:54:05.960Z,90
2017-06-03T04:54:46.553Z,90
2017-06-03T04:55:27.138Z,90
2017-06-03T04:56:07.721Z,95
2017-06-03T04:56:48.341Z,95
2017-06-03T04:57:30.404Z,95
2017-06-03T04:58:11.003Z,95
2017-06-03T04:58:55.660Z,95
2017-06-03T04:59:36.261Z,95
2017-06-03T05:00:16.927Z,95
2017-06-03T05:00:57.515Z,95
2017-06-03T05:01:38.120Z,95
2017-06-03T05:02:18.739Z,100
2017-06-03T05:02:59.320Z,100
2017-06-03T05:03:39.921Z,100
2017-06-03T05:04:20.513Z,100
2017-06-03T05:05:01.101Z,100
2017-06-03T05:05:41.709Z,100
2017-06-03T05:06:22.291Z,105
2017-06-03T05:07:02.867Z,105
2017-06-03T05:07:43.456Z,105
2017-06-03T05:08:24.130Z,105
2017-06-03T05:09:06.001Z,110
2017-06-03T05:09:46.748Z,110
2017-06-03T05:10:27.331Z,110
2017-06-03T05:11:07.933Z,115
2017-06-03T05:11:48.554Z,115
2017-06-03T05:12:29.403Z,115
2017-06-03T05:13:10.008Z,120
2017-06-03T05:13:50.601Z,125
2017-06-03T05:14:31.191Z,125
2017-06-03T05:15:11.841Z,130
2017-06-03T05:15:52.435Z,135
2017-06-03T05:16:33.148Z,140
2017-06-03T05:17:13.756Z,140
2017-06-03T05:17:54.362Z,140
2017-06-03T05:18:51.539Z,150
2017-06-03T05:19:37.242Z,155
2017-06-03T05:20:18.191Z,155
2017-06-03T05:21:03.243Z,155
2017-06-03T05:21:52.230Z,160
2017-06-03T05:22:37.845Z,170
2017-06-03T05:23:28.210Z,185
2017-06-03T05:24:13.717Z,225
2017-06-03T05:25:09.979Z,340
2017-06-03T05:26:00.217Z,700
2017-06-03T05:26:48.567Z,1110
2017-06-03T05:27:32.148Z,1280
2017-06-03T05:28:22.598Z,1350
2017-06-03T05:29:03.914Z,1390
2017-06-03T05:29:46.183Z,1430
2017-06-03T05:30:28.811Z,1505
2017-06-03T05:31:11.924Z,1575
2017-06-03T05:31:53.534Z,1515
2017-06-03T05:32:34.124Z,1510
2017-06-03T05:33:14.779Z,1480
2017-06-03T05:33:56.183Z,1490
2017-06-03T05:34:36.789Z,1515
2017-06-03T05:35:25.258Z,1490
2017-06-03T05:36:12.540Z,1435
2017-06-03T05:37:04.604Z,1485
2017-06-03T05:37:46.996Z,1530
2017-06-03T05:38:30.715Z,1475
2017-06-03T05:39:17.145Z,1495
2017-06-03T05:39:57.788Z,1555
2017-06-03T05:40:38.408Z,1615
2017-06-03T05:41:19.055Z,1610
2017-06-03T05:42:11.282Z,1565
2017-06-03T05:43:00.250Z,1600
2017-06-03T05:43:47.089Z,1610
2017-06-03T05:44:29.543Z,1585
2017-06-03T05:45:40.549Z,1575
2017-06-03T05:47:29.196Z,1670
2017-06-03T05:48:09.825Z,1680
2017-06-03T05:48:50.436Z,1690
2017-06-03T05:49:31.024Z,1670
2017-06-03T05:50:11.618Z,1650
2017-06-03T05:50:52.207Z,1640
2017-06-03T05:51:32.808Z,1665
2017-06-03T05:52:13.395Z,1675
2017-06-03T05:52:53.981Z,1625
2017-06-03T05:53:34.568Z,1575
2017-06-03T05:54:16.010Z,1610
2017-06-03T05:54:56.623Z,1720
2017-06-03T05:55:37.247Z,1720
2017-06-03T05:56:17.869Z,1690
2017-06-03T05:56:58.472Z,1650
2017-06-03T05:57:39.079Z,1650
2017-06-03T05:58:19.726Z,1610
2017-06-03T05:59:00.353Z,1635
2017-06-03T05:59:40.964Z,1650
2017-06-03T06:00:21.577Z,1605
2017-06-03T06:01:02.184Z,1575
2017-06-03T06:01:42.784Z,1605
2017-06-03T06:02:23.450Z,1610
2017-06-03T06:03:04.042Z,1585
2017-06-03T06:03:44.646Z,1585
2017-06-03T06:04:25.286Z,1665
2017-06-03T06:05:05.972Z,1775
2017-06-03T06:05:46.703Z,1715
2017-06-03T06:06:27.305Z,1710
2017-06-03T06:07:07.893Z,1715
2017-06-03T06:07:48.520Z,1735
2017-06-03T06:08:29.149Z,1730
2017-06-03T06:09:09.772Z,1785
2017-06-03T06:09:50.395Z,1795
2017-06-03T06:10:31.014Z,1710
2017-06-03T06:11:11.617Z,1660
2017-06-03T06:11:52.235Z,1670
2017-06-03T06:12:32.854Z,1750
2017-06-03T06:13:13.588Z,1715
2017-06-03T06:13:55.372Z,1665
2017-06-03T06:14:35.966Z,1540
2017-06-03T06:15:16.562Z,1510
2017-06-03T06:15:57.221Z,1645
2017-06-03T06:16:37.823Z,1730
2017-06-03T06:17:18.436Z,1725
2017-06-03T06:17:59.048Z,1660
2017-06-03T06:18:39.651Z,1610
2017-06-03T06:19:20.279Z,1630
2017-06-03T06:20:01.164Z,1700
2017-06-03T06:20:42.042Z,1745
2017-06-03T06:21:22.734Z,1715
2017-06-03T06:22:03.411Z,1700
2017-06-03T06:22:46.672Z,1700
2017-06-03T06:23:29.831Z,1705
2017-06-03T06:24:10.592Z,1735
2017-06-03T06:24:54.281Z,1795
2017-06-03T06:25:34.907Z,1765
2017-06-03T06:26:15.509Z,1755
2017-06-03T06:26:56.128Z,1705
2017-06-03T06:27:36.879Z,1755
2017-06-03T06:28:17.469Z,1755
2017-06-03T06:28:58.114Z,1730
2017-06-03T06:29:38.717Z,1690
2017-06-03T06:30:20.924Z,1690
2017-06-03T06:31:04.252Z,1690
2017-06-03T06:31:46.508Z,1715
2017-06-03T06:32:31.262Z,1710
2017-06-03T06:33:11.888Z,1620
2017-06-03T06:33:54.262Z,1565
2017-06-03T06:34:35.180Z,1680
2017-06-03T06:35:21.266Z,1780
2017-06-03T06:36:02.217Z,1745
2017-06-03T06:36:49.945Z,1715
2017-06-03T06:37:30.547Z,1725
2017-06-03T06:38:11.147Z,1705
2017-06-03T06:38:51.744Z,1745
2017-06-03T06:39:32.354Z,1715
2017-06-03T06:40:12.951Z,1760
2017-06-03T06:40:53.611Z,1765
2017-06-03T06:41:34.299Z,1760
2017-06-03T06:42:14.901Z,1725
2017-06-03T06:42:55.703Z,1725
2017-06-03T06:43:36.311Z,1745
2017-06-03T06:44:16.945Z,1765
2017-06-03T06:44:57.522Z,1775
2017-06-03T06:45:38.137Z,1730
2017-06-03T06:46:18.739Z,1775
2017-06-03T06:46:59.343Z,1745
2017-06-03T06:47:39.969Z,1760
2017-06-03T06:48:20.583Z,1735
2017-06-03T06:49:01.254Z,1745
2017-06-03T06:49:41.854Z,1710
2017-06-03T06:50:22.467Z,1675
2017-06-03T06:51:03.129Z,1655
2017-06-03T06:51:43.742Z,1600
2017-06-03T06:52:24.380Z,1670
2017-06-03T06:53:05.005Z,1710
2017-06-03T06:53:45.672Z,1760
2017-06-03T06:54:26.266Z,1715
2017-06-03T06:55:06.907Z,1590
2017-06-03T06:55:47.595Z,1675
2017-06-03T06:56:28.169Z,1535
2017-06-03T06:57:08.809Z,1505
2017-06-03T06:57:49.426Z,1510
2017-06-03T06:58:30.043Z,1610
2017-06-03T06:59:10.649Z,1575
2017-06-03T06:59:51.256Z,1515
2017-06-03T07:00:31.851Z,1490
2017-06-03T07:01:12.448Z,1140
2017-06-03T07:01:53.053Z,1150
2017-06-03T07:02:33.997Z,1320
2017-06-03T07:03:14.600Z,1250
2017-06-03T07:03:55.203Z,1245
2017-06-03T07:04:35.862Z,1115
2017-06-03T07:05:16.468Z,1230
2017-06-03T07:05:57.069Z,1075
2017-06-03T07:06:37.681Z,785
2017-06-03T07:07:18.298Z,625
2017-06-03T07:07:58.898Z,520
2017-06-03T07:08:39.531Z,485
2017-06-03T07:09:20.406Z,410
2017-06-03T07:10:01.116Z,415
2017-06-03T07:10:41.816Z,420
2017-06-03T07:11:22.438Z,455
2017-06-03T07:12:03.033Z,430
2017-06-03T07:12:43.633Z,415
2017-06-03T07:13:24.233Z,395
2017-06-03T07:14:04.961Z,375
2017-06-03T07:14:45.550Z,360
2017-06-03T07:15:26.153Z,350
2017-06-03T07:16:06.751Z,310
2017-06-03T07:16:47.357Z,290
2017-06-03T07:17:27.952Z,275
2017-06-03T07:18:08.657Z,255
2017-06-03T07:18:49.268Z,240
2017-06-03T07:19:30.064Z,225
2017-06-03T07:20:10.678Z,215
2017-06-03T07:20:51.422Z,205
2017-06-03T07:21:32.002Z,205
2017-06-03T07:22:12.596Z,215
2017-06-03T07:22:53.235Z,210
2017-06-03T07:23:33.840Z,210
2017-06-03T07:24:14.441Z,205
2017-06-03T07:24:55.037Z,200
2017-06-03T07:25:35.709Z,195
2017-06-03T07:26:16.287Z,190
2017-06-03T07:26:56.903Z,185
2017-06-03T07:27:37.519Z,175
2017-06-03T07:28:18.124Z,165
2017-06-03T07:28:58.729Z,155
2017-06-03T07:29:39.314Z,150
2017-06-03T07:30:20.004Z,145
2017-06-03T07:31:00.569Z,145
2017-06-03T07:31:41.178Z,145
2017-06-03T07:32:21.783Z,145
2017-06-03T07:33:02.374Z,145
2017-06-03T07:33:43.116Z,145
2017-06-03T07:34:23.854Z,145
2017-06-03T07:35:04.512Z,150
2017-06-03T07:35:45.123Z,155
2017-06-03T07:36:25.722Z,160
2017-06-03T07:37:06.323Z,165
2017-06-03T07:37:46.939Z,180
2017-06-03T07:38:27.578Z,190
2017-06-03T07:39:08.226Z,195
2017-06-03T07:39:48.962Z,205
2017-06-03T07:40:29.568Z,220
2017-06-03T07:41:10.228Z,235
2017-06-03T07:41:50.809Z,250
2017-06-03T07:42:31.412Z,465
2017-06-03T07:43:12.011Z,450
2017-06-03T07:43:52.626Z,380
2017-06-03T07:44:33.238Z,410
2017-06-03T07:45:13.843Z,390
2017-06-03T07:45:54.496Z,325
2017-06-03T07:46:35.130Z,370
2017-06-03T07:47:15.732Z,415
2017-06-03T07:47:56.328Z,410
2017-06-03T07:48:36.959Z,390
2017-06-03T07:49:17.615Z,300
2017-06-03T07:49:58.205Z,295
2017-06-03T07:50:38.812Z,285
2017-06-03T07:51:19.400Z,280
2017-06-03T07:51:59.989Z,280
2017-06-03T07:52:40.596Z,265
2017-06-03T07:53:21.188Z,265
2017-06-03T07:54:01.785Z,260
2017-06-03T07:54:42.379Z,250
2017-06-03T07:55:23.000Z,245
2017-06-03T07:56:03.594Z,245
2017-06-03T07:56:44.300Z,265
2017-06-03T07:57:24.883Z,255
2017-06-03T07:58:05.495Z,260
2017-06-03T07:58:46.093Z,255
2017-06-03T07:59:26.678Z,250
2017-06-03T08:00:07.264Z,255
2017-06-03T08:00:47.878Z,250
2017-06-03T08:01:28.468Z,250
2017-06-03T08:02:09.069Z,245
2017-06-03T08:02:49.674Z,245
2017-06-03T08:03:30.282Z,240
2017-06-03T08:04:10.901Z,245
2017-06-03T08:04:51.507Z,265
2017-06-03T08:05:32.129Z,300
2017-06-03T08:06:12.713Z,260
2017-06-03T08:06:53.366Z,270
2017-06-03T08:07:33.969Z,280
2017-06-03T08:08:14.660Z,285
2017-06-03T08:08:55.287Z,305
2017-06-03T08:09:35.870Z,355
2017-06-03T08:10:16.484Z,270
2017-06-03T08:10:57.083Z,265
2017-06-03T08:11:37.676Z,255
2017-06-03T08:12:18.284Z,250
2017-06-03T08:12:58.915Z,245
2017-06-03T08:13:39.507Z,240
2017-06-03T08:14:20.107Z,240
2017-06-03T08:15:05.246Z,235
2017-06-03T08:15:48.923Z,235
2017-06-03T08:16:29.562Z,230
2017-06-03T08:17:10.168Z,230
2017-06-03T08:17:50.752Z,230
2017-06-03T08:18:31.359Z,225
2017-06-03T08:19:11.971Z,220
2017-06-03T08:19:52.569Z,215
2017-06-03T08:20:33.184Z,205
2017-06-03T08:21:13.798Z,205
2017-06-03T08:21:54.414Z,200
2017-06-03T08:22:35.023Z,195
2017-06-03T08:23:15.639Z,195
2017-06-03T08:23:56.251Z,190
2017-06-03T08:24:36.882Z,195
2017-06-03T08:25:17.479Z,200
2017-06-03T08:25:58.096Z,215
2017-06-03T08:26:38.747Z,215
2017-06-03T08:27:19.382Z,225
2017-06-03T08:28:00.020Z,235
2017-06-03T08:28:40.620Z,245
2017-06-03T08:29:21.224Z,245
2017-06-03T08:30:01.831Z,250
2017-06-03T08:30:42.437Z,255
2017-06-03T08:31:23.030Z,250
2017-06-03T08:32:03.649Z,245
2017-06-03T08:32:44.259Z,240
2017-06-03T08:33:24.889Z,230
2017-06-03T08:34:05.477Z,225
2017-06-03T08:34:46.093Z,220
2017-06-03T08:35:26.677Z,215
2017-06-03T08:36:07.265Z,215
2017-06-03T08:36:47.852Z,220
2017-06-03T08:37:28.439Z,220
2017-06-03T08:38:09.036Z,225
2017-06-03T08:38:49.623Z,225
2017-06-03T08:39:30.231Z,230
2017-06-03T08:40:10.842Z,230
2017-06-03T08:40:51.460Z,235
2017-06-03T08:41:32.039Z,235
2017-06-03T08:42:12.622Z,230
2017-06-03T08:42:53.219Z,225
2017-06-03T08:43:33.847Z,230
2017-06-03T08:44:14.433Z,230
2017-06-03T08:44:55.032Z,230
2017-06-03T08:45:35.625Z,230
2017-06-03T08:46:16.255Z,220
2017-06-03T08:46:56.851Z,215
2017-06-03T08:47:37.437Z,205
2017-06-03T08:48:18.029Z,200
2017-06-03T08:48:58.615Z,200
2017-06-03T08:49:39.204Z,195
2017-06-03T08:50:19.812Z,195
2017-06-03T08:51:00.425Z,195
2017-06-03T08:51:41.015Z,190
2017-06-03T08:52:21.623Z,190
2017-06-03T08:53:02.214Z,215
2017-06-03T08:53:42.814Z,200
2017-06-03T08:54:23.395Z,220
2017-06-03T08:55:03.988Z,230
2017-06-03T08:55:44.572Z,245
2017-06-03T08:56:25.278Z,245
2017-06-03T08:57:05.871Z,235
2017-06-03T08:57:46.486Z,235
2017-06-03T08:58:27.086Z,240
2017-06-03T08:59:07.722Z,250
2017-06-03T08:59:48.304Z,225
2017-06-03T09:00:28.898Z,225
2017-06-03T09:01:09.490Z,225
2017-06-03T09:01:50.097Z,220
2017-06-03T09:02:30.677Z,215
2017-06-03T09:03:11.262Z,210
2017-06-03T09:03:51.877Z,205
2017-06-03T09:04:32.478Z,200
2017-06-03T09:05:13.082Z,195
2017-06-03T09:05:53.683Z,195
2017-06-03T09:06:34.276Z,195
2017-06-03T09:07:14.884Z,190
2017-06-03T09:07:55.484Z,190
2017-06-03T09:08:36.085Z,185
2017-06-03T09:09:16.707Z,180
2017-06-03T09:09:57.321Z,175
2017-06-03T09:10:37.915Z,170
2017-06-03T09:11:18.563Z,165
2017-06-03T09:11:59.183Z,160
2017-06-03T09:12:39.779Z,150
2017-06-03T09:13:20.383Z,145
2017-06-03T09:14:00.994Z,145
2017-06-03T09:14:41.604Z,140
2017-06-03T09:15:22.199Z,140
2017-06-03T09:16:02.793Z,135
2017-06-03T09:16:43.382Z,135
2017-06-03T09:17:24.031Z,135
2017-06-03T09:18:04.622Z,135
2017-06-03T09:18:45.223Z,130
2017-06-03T09:19:25.831Z,125
2017-06-03T09:20:06.489Z,125
2017-06-03T09:20:47.097Z,125
2017-06-03T09:21:27.685Z,125
2017-06-03T09:22:08.282Z,125
2017-06-03T09:22:48.884Z,130
2017-06-03T09:23:29.473Z,135
2017-06-03T09:24:10.133Z,140
2017-06-03T09:24:50.723Z,140
2017-06-03T09:25:31.345Z,130
2017-06-03T09:26:11.936Z,125
2017-06-03T09:26:52.525Z,125
2017-06-03T09:27:33.169Z,120
2017-06-03T09:28:13.745Z,110
2017-06-03T09:28:54.378Z,105
2017-06-03T09:29:34.984Z,90
2017-06-03T09:30:15.594Z,80
2017-06-03T09:30:56.196Z,70
2017-06-03T09:31:36.796Z,65
2017-06-03T09:32:17.408Z,60
2017-06-03T09:32:58.039Z,55
2017-06-03T09:33:38.653Z,50
2017-06-03T09:34:19.291Z,45
2017-06-03T09:34:59.897Z,40
2017-06-03T09:35:40.486Z,40
2017-06-03T09:36:21.082Z,35
2017-06-03T09:37:01.690Z,35
2017-06-03T09:37:42.315Z,35
2017-06-03T09:38:22.913Z,35